createdAt,value
2022-08-10T00:01:02.205Z,0.60
2022-08-10T00:03:28.710Z,0.70
2022-08-10T00:05:56.725Z,0.60
2022-08-10T00:08:25.529Z,0.63
2022-08-10T00:10:55.840Z,0.70
2022-08-10T00:13:23.143Z,0.60
2022-08-10T00:15:53.626Z,0.68
2022-08-10T00:18:31.610Z,0.80
2022-08-10T00:21:07.260Z,1.00
2022-08-10T00:23:34.590Z,0.60
2022-08-10T00:26:01.714Z,0.65
2022-08-10T00:28:28.197Z,0.57
2022-08-10T00:30:54.694Z,0.63
2022-08-10T00:33:21.296Z,0.70
2022-08-10T00:35:47.921Z,0.70
2022-08-10T00:38:14.403Z,0.50
2022-08-10T00:40:40.920Z,0.60
2022-08-10T00:43:07.817Z,0.90
2022-08-10T00:45:34.864Z,0.63
2022-08-10T00:48:01.442Z,0.70
2022-08-10T00:50:28.052Z,0.80
2022-08-10T00:52:54.630Z,0.70
2022-08-10T00:55:21.145Z,0.63
2022-08-10T00:57:55.236Z,0.75
2022-08-10T01:00:22.697Z,0.65
2022-08-10T01:02:49.276Z,0.57
2022-08-10T01:05:16.418Z,0.70
2022-08-10T01:08:05.997Z,0.50
2022-08-10T01:10:41.561Z,0.80
2022-08-10T01:13:10.769Z,0.77
2022-08-10T01:15:37.331Z,0.70
2022-08-10T01:18:06.054Z,0.70
2022-08-10T01:20:32.471Z,0.85
2022-08-10T01:22:58.871Z,0.80
2022-08-10T01:26:11.725Z,0.75
2022-08-10T01:28:55.510Z,0.93
2022-08-10T01:31:26.214Z,0.70
2022-08-10T01:34:01.822Z,0.68
2022-08-10T01:36:31.960Z,0.50
2022-08-10T01:39:01.520Z,0.68
2022-08-10T01:41:46.549Z,0.60
2022-08-10T01:44:20.175Z,0.60
2022-08-10T01:46:48.895Z,0.70
2022-08-10T01:49:21.117Z,0.50
2022-08-10T01:51:52.743Z,0.65
2022-08-10T01:54:20.492Z,0.63
2022-08-10T01:56:49.112Z,0.70
2022-08-10T01:59:24.150Z,0.50
2022-08-10T02:01:52.100Z,0.60
2022-08-10T02:04:19.560Z,0.65
2022-08-10T02:06:47.718Z,0.60
2022-08-10T02:09:17.175Z,0.50
2022-08-10T02:12:06.317Z,0.57
2022-08-10T02:14:35.466Z,0.60
2022-08-10T02:17:03.720Z,0.40
2022-08-10T02:19:30.442Z,0.52
2022-08-10T02:22:36.500Z,0.60
2022-08-10T02:24:46.699Z,0.43
2022-08-10T02:27:13.665Z,0.60
2022-08-10T02:29:42.464Z,0.60
2022-08-10T02:32:09.820Z,0.60
2022-08-10T02:34:39.336Z,0.70
2022-08-10T02:37:10.938Z,0.57
2022-08-10T02:39:40.055Z,0.50
2022-08-10T02:45:14.107Z,0.60
2022-08-10T02:45:16.149Z,0.43
2022-08-10T02:47:54.769Z,0.52
2022-08-10T02:50:21.211Z,0.47
2022-08-10T02:52:49.122Z,0.68
2022-08-10T02:55:30.295Z,0.60
2022-08-10T02:58:12.879Z,0.70
2022-08-10T03:00:46.573Z,0.60
2022-08-10T03:03:17.225Z,0.60
2022-08-10T03:05:44.364Z,0.77
2022-08-10T03:08:12.145Z,0.63
2022-08-10T03:10:40.344Z,0.68
2022-08-10T03:13:08.276Z,0.50
2022-08-10T03:15:35.102Z,0.60
2022-08-10T03:18:02.083Z,0.70
2022-08-10T03:20:37.219Z,0.60
2022-08-10T03:23:07.345Z,0.60
2022-08-10T03:25:34.907Z,0.55
2022-08-10T03:28:01.981Z,0.70
2022-08-10T03:30:33.217Z,0.50
2022-08-10T03:33:01.241Z,0.60
2022-08-10T03:35:28.082Z,0.65
2022-08-10T03:37:59.129Z,0.60
2022-08-10T03:45:26.979Z,0.50
2022-08-10T03:48:13.695Z,0.77
2022-08-10T03:50:51.442Z,0.75
2022-08-10T03:53:25.052Z,0.63
2022-08-10T03:56:29.235Z,0.60
2022-08-10T03:58:52.504Z,0.70
2022-08-10T04:01:19.706Z,0.70
2022-08-10T04:03:46.426Z,0.52
2022-08-10T04:06:13.567Z,0.60
2022-08-10T04:08:42.262Z,0.60
2022-08-10T04:11:11.946Z,0.65
2022-08-10T04:13:38.467Z,0.70
2022-08-10T04:16:07.592Z,0.60
2022-08-10T04:18:34.376Z,0.65
2022-08-10T04:21:15.677Z,0.70
2022-08-10T04:23:44.385Z,0.70
2022-08-10T04:26:11.647Z,0.60
2022-08-10T04:28:38.139Z,0.65
2022-08-10T04:31:06.466Z,0.73
2022-08-10T04:33:33.568Z,0.65
2022-08-10T04:36:00.701Z,0.80
2022-08-10T04:38:27.723Z,0.50
2022-08-10T04:40:54.347Z,0.60
2022-08-10T04:43:20.973Z,0.68
2022-08-10T04:45:51.722Z,0.60
2022-08-10T04:48:43.227Z,0.57
2022-08-10T04:51:06.107Z,0.68
2022-08-10T04:53:34.055Z,0.60
2022-08-10T04:56:20.568Z,0.70
2022-08-10T04:58:57.785Z,0.70
2022-08-10T05:01:25.068Z,0.70
2022-08-10T05:04:34.517Z,0.40
2022-08-10T05:06:38.164Z,0.60
2022-08-10T05:09:04.677Z,0.80
2022-08-10T05:11:31.118Z,0.63
2022-08-10T05:13:57.578Z,0.50
2022-08-10T05:16:31.928Z,0.60
2022-08-10T05:18:59.244Z,0.80
2022-08-10T05:21:59.791Z,0.60
2022-08-10T05:24:12.185Z,0.60
2022-08-10T05:26:42.469Z,0.60
2022-08-10T05:29:25.122Z,0.60
2022-08-10T05:31:51.612Z,0.70
2022-08-10T05:34:20.531Z,0.43
2022-08-10T05:36:47.975Z,0.80
2022-08-10T05:39:15.275Z,0.60
2022-08-10T05:41:46.067Z,0.60
2022-08-10T05:44:14.621Z,0.75
2022-08-10T05:46:41.470Z,0.80
2022-08-10T05:49:07.999Z,0.70
2022-08-10T05:51:34.620Z,0.60
2022-08-10T05:54:06.040Z,0.57
2022-08-10T05:56:55.753Z,0.80
2022-08-10T06:00:29.305Z,0.70
2022-08-10T06:02:33.058Z,0.70
2022-08-10T06:05:05.002Z,0.50
2022-08-10T06:07:31.663Z,0.70
2022-08-10T06:10:00.323Z,0.77
2022-08-10T06:12:30.369Z,0.70
2022-08-10T06:15:05.152Z,0.70
2022-08-10T06:17:32.799Z,0.57
2022-08-10T06:20:00.030Z,0.57
2022-08-10T06:22:32.457Z,0.60
2022-08-10T06:25:31.932Z,0.45
2022-08-10T06:27:48.120Z,0.47
2022-08-10T06:30:20.864Z,0.60
2022-08-10T06:32:49.426Z,0.60
2022-08-10T06:35:16.602Z,0.52
2022-08-10T06:37:43.459Z,0.60
2022-08-10T06:40:17.590Z,0.57
2022-08-10T06:42:47.358Z,0.47
2022-08-10T06:45:18.672Z,0.70
2022-08-10T06:47:46.787Z,0.50
2022-08-10T06:50:44.555Z,0.70
2022-08-10T06:53:11.943Z,0.60
2022-08-10T06:58:07.572Z,0.57
2022-08-10T07:00:39.324Z,0.75
2022-08-10T07:03:08.725Z,0.47
2022-08-10T07:05:37.970Z,0.70
2022-08-10T07:08:05.205Z,0.70
2022-08-10T07:10:46.155Z,0.57
2022-08-10T07:13:15.204Z,0.68
2022-08-10T07:15:59.683Z,0.60
2022-08-10T07:18:27.499Z,0.40
2022-08-10T07:20:57.353Z,0.40
2022-08-10T07:23:58.843Z,0.60
2022-08-10T07:26:13.483Z,0.40
2022-08-10T07:28:42.996Z,0.60
2022-08-10T07:31:54.304Z,0.70
2022-08-10T07:34:02.757Z,0.50
2022-08-10T07:36:30.227Z,0.70
2022-08-10T07:38:57.197Z,0.70
2022-08-10T07:41:25.272Z,0.82
2022-08-10T07:43:52.230Z,0.50
2022-08-10T07:46:20.101Z,0.70
2022-08-10T07:48:48.664Z,0.68
2022-08-10T07:51:17.496Z,0.50
2022-08-10T07:53:45.902Z,0.70
2022-08-10T07:56:26.349Z,0.73
2022-08-10T07:59:12.365Z,0.70
2022-08-10T08:01:42.226Z,0.75
2022-08-10T08:04:11.251Z,0.60
2022-08-10T08:06:39.619Z,0.60
2022-08-10T08:09:06.142Z,0.68
2022-08-10T08:11:33.492Z,0.60
2022-08-10T08:14:00.613Z,0.60
2022-08-10T08:16:27.085Z,0.93
2022-08-10T08:19:23.971Z,0.50
2022-08-10T08:24:07.378Z,0.82
2022-08-10T08:24:31.451Z,0.80
2022-08-10T08:27:00.784Z,0.80
2022-08-10T08:29:27.618Z,0.73
2022-08-10T08:32:01.722Z,0.70
2022-08-10T08:34:29.901Z,0.70
2022-08-10T08:36:59.667Z,0.63
2022-08-10T08:39:26.488Z,0.90
2022-08-10T08:41:59.114Z,0.70
2022-08-10T08:44:25.501Z,0.73
2022-08-10T08:46:58.857Z,0.80
2022-08-10T08:50:04.894Z,0.60
2022-08-10T08:52:38.801Z,0.70
2022-08-10T08:55:05.304Z,0.80
2022-08-10T08:58:08.389Z,0.70
2022-08-10T09:00:41.546Z,1.02
2022-08-10T09:03:10.958Z,0.80
2022-08-10T09:05:59.114Z,0.80
2022-08-10T09:08:36.126Z,0.63
2022-08-10T09:11:28.597Z,0.70
2022-08-10T09:14:01.132Z,0.90
2022-08-10T09:16:37.793Z,0.60
2022-08-10T09:19:08.411Z,0.88
2022-08-10T09:22:12.384Z,0.90
2022-08-10T09:24:53.023Z,0.70
2022-08-10T09:27:21.131Z,0.70
2022-08-10T09:29:54.857Z,0.57
2022-08-10T09:36:13.859Z,0.60
2022-08-10T09:36:25.760Z,0.60
2022-08-10T09:38:24.648Z,0.70
2022-08-10T09:41:13.282Z,0.70
2022-08-10T09:43:45.992Z,0.60
2022-08-10T09:46:18.387Z,0.60
2022-08-10T09:48:54.639Z,0.50
2022-08-10T09:51:44.925Z,0.90
2022-08-10T09:54:20.898Z,0.70
2022-08-10T09:56:47.645Z,0.90
2022-08-10T10:00:00.496Z,0.60
2022-08-10T10:02:24.705Z,0.60
2022-08-10T10:05:09.860Z,0.60
2022-08-10T10:07:38.805Z,0.60
2022-08-10T10:10:07.979Z,0.60
2022-08-10T10:12:34.404Z,0.52
2022-08-10T10:15:24.843Z,0.60
2022-08-10T10:17:58.428Z,0.70
2022-08-10T10:20:43.478Z,0.52
2022-08-10T10:24:05.379Z,0.55
2022-08-10T10:26:46.682Z,0.52
2022-08-10T10:29:56.853Z,0.70
2022-08-10T10:32:32.000Z,0.73
2022-08-10T10:35:09.750Z,0.70
2022-08-10T10:38:01.151Z,0.70
2022-08-10T10:40:25.512Z,0.60
2022-08-10T10:42:54.726Z,0.50
2022-08-10T10:45:49.997Z,0.60
2022-08-10T10:48:24.198Z,0.70
2022-08-10T10:50:56.295Z,0.50
2022-08-10T10:53:27.281Z,0.60
2022-08-10T10:56:14.643Z,0.50
2022-08-10T10:58:48.201Z,0.40
2022-08-10T11:01:14.666Z,0.50
2022-08-10T11:03:41.147Z,0.60
2022-08-10T11:06:18.614Z,0.60
2022-08-10T11:08:52.493Z,0.60
2022-08-10T11:12:00.262Z,0.47
2022-08-10T11:14:33.626Z,0.50
2022-08-10T11:17:02.765Z,0.50
2022-08-10T11:20:02.589Z,0.50
2022-08-10T11:22:42.424Z,0.60
2022-08-10T11:25:15.898Z,0.52
2022-08-10T11:27:48.868Z,0.50
2022-08-10T11:30:19.217Z,0.50
2022-08-10T11:33:05.032Z,0.60
2022-08-10T11:35:38.514Z,0.50
2022-08-10T11:38:58.015Z,0.40
2022-08-10T11:42:11.933Z,0.40
2022-08-10T11:44:51.231Z,0.50
2022-08-10T11:47:22.326Z,0.50
2022-08-10T11:49:57.759Z,0.45
2022-08-10T11:52:42.725Z,0.50
2022-08-10T11:55:15.659Z,0.50
2022-08-10T11:57:54.683Z,0.40
2022-08-10T12:00:22.260Z,0.50
2022-08-10T12:02:54.274Z,0.50
2022-08-10T12:05:53.942Z,0.57
2022-08-10T12:10:09.982Z,0.50
2022-08-10T12:11:05.392Z,0.60
2022-08-10T12:13:37.827Z,0.60
2022-08-10T12:16:07.322Z,0.70
2022-08-10T12:18:36.614Z,0.60
2022-08-10T12:21:08.597Z,0.50
2022-08-10T12:24:03.354Z,0.65
2022-08-10T12:26:39.695Z,0.60
2022-08-10T12:29:06.139Z,0.80
2022-08-10T12:31:40.007Z,0.60
2022-08-10T12:34:15.925Z,0.63
2022-08-10T12:36:44.804Z,0.60
2022-08-10T12:39:14.381Z,0.50
2022-08-10T12:41:55.609Z,0.70
2022-08-10T12:44:35.741Z,0.52
2022-08-10T12:47:14.782Z,0.52
2022-08-10T12:49:41.376Z,0.32
2022-08-10T12:52:30.395Z,0.60
2022-08-10T12:54:58.674Z,0.63
2022-08-10T12:57:25.948Z,0.70
2022-08-10T12:59:53.520Z,0.60
2022-08-10T13:02:33.831Z,0.60
2022-08-10T13:05:02.421Z,0.60
2022-08-10T13:08:25.770Z,0.50
2022-08-10T13:10:20.065Z,0.57
2022-08-10T13:12:50.770Z,0.60
2022-08-10T13:15:45.971Z,0.57
2022-08-10T13:18:18.378Z,0.70
2022-08-10T13:20:50.450Z,0.70
2022-08-10T13:23:20.323Z,0.73
2022-08-10T13:25:51.054Z,0.80
2022-08-10T13:28:36.274Z,0.80
2022-08-10T13:31:07.315Z,0.80
2022-08-10T13:34:39.631Z,0.70
2022-08-10T13:36:27.341Z,0.60
2022-08-10T13:38:58.866Z,0.55
2022-08-10T13:41:29.572Z,0.70
2022-08-10T13:44:00.346Z,0.70
2022-08-10T13:46:27.255Z,0.50
2022-08-10T13:48:54.552Z,0.60
2022-08-10T13:51:23.505Z,0.60
2022-08-10T13:54:11.056Z,0.57
2022-08-10T13:56:37.682Z,0.60
2022-08-10T13:59:09.721Z,0.70
2022-08-10T14:01:37.826Z,0.50
2022-08-10T14:04:06.762Z,0.40
2022-08-10T14:06:34.154Z,0.43
2022-08-10T14:09:06.436Z,0.60
2022-08-10T14:11:33.458Z,0.50
2022-08-10T14:14:18.840Z,0.50
2022-08-10T14:16:45.723Z,0.50
2022-08-10T14:19:17.222Z,0.60
2022-08-10T14:21:43.816Z,0.60
2022-08-10T14:24:27.251Z,0.50
2022-08-10T14:27:02.954Z,0.45
2022-08-10T14:29:30.032Z,0.40
2022-08-10T14:32:01.854Z,0.40
2022-08-10T14:36:16.759Z,0.50
2022-08-10T14:37:23.009Z,0.65
2022-08-10T14:39:56.661Z,0.60
2022-08-10T14:42:28.029Z,0.50
2022-08-10T14:44:57.216Z,0.50
2022-08-10T14:47:53.717Z,0.50
2022-08-10T14:50:15.708Z,0.40
2022-08-10T14:53:00.207Z,0.50
2022-08-10T14:55:27.098Z,0.40
2022-08-10T14:58:16.161Z,0.30
2022-08-10T15:00:43.677Z,0.47
2022-08-10T15:03:58.654Z,0.40
2022-08-10T15:05:59.188Z,0.40
2022-08-10T15:08:27.064Z,0.43
2022-08-10T15:10:56.151Z,0.43
2022-08-10T15:13:36.103Z,0.40
2022-08-10T15:16:13.349Z,0.50
2022-08-10T15:18:42.220Z,0.47
2022-08-10T15:21:29.078Z,0.65
2022-08-10T15:24:12.836Z,0.32
2022-08-10T15:26:41.058Z,0.40
2022-08-10T15:29:24.262Z,0.40
2022-08-10T15:32:10.545Z,0.40
2022-08-10T15:34:56.337Z,0.40
2022-08-10T15:37:39.911Z,0.40
2022-08-10T15:40:23.814Z,0.40
2022-08-10T15:43:20.154Z,0.40
2022-08-10T15:46:11.825Z,0.30
2022-08-10T15:48:48.172Z,0.30
2022-08-10T15:51:33.837Z,0.40
2022-08-10T15:54:16.302Z,0.40
2022-08-10T15:56:55.910Z,0.40
2022-08-10T15:59:29.820Z,0.40
2022-08-10T16:02:04.609Z,0.30
2022-08-10T16:04:48.020Z,0.35
2022-08-10T16:07:18.916Z,0.30
2022-08-10T16:10:24.330Z,0.30
2022-08-10T16:12:41.578Z,0.32
2022-08-10T16:15:12.359Z,0.30
2022-08-10T16:17:57.198Z,0.43
2022-08-10T16:20:27.974Z,0.50
2022-08-10T16:22:59.001Z,0.38
2022-08-10T16:25:48.307Z,0.30
2022-08-10T16:28:19.953Z,0.30
2022-08-10T16:30:53.263Z,0.30
2022-08-10T16:33:24.854Z,0.28
2022-08-10T16:36:14.852Z,0.35
2022-08-10T16:38:43.523Z,0.25
2022-08-10T16:42:00.690Z,0.30
2022-08-10T16:43:57.670Z,0.40
2022-08-10T16:46:25.141Z,0.43
2022-08-10T16:48:53.119Z,0.50
2022-08-10T16:51:22.539Z,0.30
2022-08-10T16:53:50.140Z,0.30
2022-08-10T16:56:17.348Z,0.40
2022-08-10T16:58:45.680Z,0.40
2022-08-10T17:01:15.077Z,0.50
2022-08-10T17:04:06.701Z,0.38
2022-08-10T17:06:31.237Z,0.57
2022-08-10T17:08:59.324Z,0.32
2022-08-10T17:11:29.991Z,0.30
2022-08-10T17:13:57.770Z,0.47
2022-08-10T17:16:24.593Z,0.45
2022-08-10T17:18:51.589Z,0.40
2022-08-10T17:21:20.529Z,0.30
2022-08-10T17:23:49.232Z,0.40
2022-08-10T17:26:23.902Z,0.40
2022-08-10T17:29:09.511Z,0.43
2022-08-10T17:31:54.757Z,0.40
2022-08-10T17:34:29.071Z,0.35
2022-08-10T17:37:00.024Z,0.40
2022-08-10T17:39:41.547Z,0.37
2022-08-10T17:42:08.497Z,0.40
2022-08-10T17:44:39.007Z,0.50
2022-08-10T17:47:11.326Z,0.50
2022-08-10T17:49:38.866Z,0.50
2022-08-10T17:52:08.261Z,0.40
2022-08-10T17:54:36.651Z,0.50
2022-08-10T17:57:12.579Z,0.50
2022-08-10T17:59:39.334Z,0.47
2022-08-10T18:02:08.486Z,0.50
2022-08-10T18:04:42.127Z,0.50
2022-08-10T18:07:10.083Z,0.60
2022-08-10T18:09:41.393Z,0.50
2022-08-10T18:12:36.035Z,0.50
2022-08-10T18:15:08.541Z,0.55
2022-08-10T18:17:41.169Z,0.50
2022-08-10T18:20:08.779Z,0.40
2022-08-10T18:22:43.092Z,0.65
2022-08-10T18:25:15.948Z,0.50
2022-08-10T18:28:00.591Z,0.50
2022-08-10T18:30:29.913Z,0.40
2022-08-10T18:33:03.052Z,0.30
2022-08-10T18:35:34.504Z,0.40
2022-08-10T18:38:03.038Z,0.40
2022-08-10T18:40:35.448Z,0.50
2022-08-10T18:43:07.354Z,0.55
2022-08-10T18:45:36.732Z,0.60
2022-08-10T18:48:29.581Z,0.30
2022-08-10T18:50:57.660Z,0.43
2022-08-10T18:53:24.136Z,0.40
2022-08-10T18:56:08.765Z,0.40
2022-08-10T18:59:02.208Z,0.40
2022-08-10T19:01:47.873Z,0.38
2022-08-10T19:04:31.115Z,0.52
2022-08-10T19:06:57.535Z,0.30
2022-08-10T19:09:46.152Z,0.40
2022-08-10T19:12:30.795Z,0.70
2022-08-10T19:15:06.535Z,0.40
2022-08-10T19:18:02.861Z,0.50
2022-08-10T19:20:35.252Z,0.50
2022-08-10T19:23:05.896Z,0.55
2022-08-10T19:26:42.375Z,0.40
2022-08-10T19:28:36.525Z,0.40
2022-08-10T19:31:08.592Z,0.45
2022-08-10T19:34:11.408Z,0.52
2022-08-10T19:36:41.431Z,0.40
2022-08-10T19:39:19.459Z,0.40
2022-08-10T19:41:54.427Z,0.50
2022-08-10T19:44:39.912Z,0.70
2022-08-10T19:47:09.703Z,0.50
2022-08-10T19:49:43.633Z,0.60
2022-08-10T19:52:28.892Z,0.80
2022-08-10T19:55:15.187Z,0.60
2022-08-10T19:57:47.069Z,0.60
2022-08-10T20:00:18.930Z,0.60
2022-08-10T20:03:04.386Z,0.68
2022-08-10T20:06:19.623Z,0.68
2022-08-10T20:08:54.461Z,0.70
2022-08-10T20:11:44.798Z,0.70
2022-08-10T20:14:21.508Z,0.65
2022-08-10T20:16:50.107Z,0.50
2022-08-10T20:19:23.052Z,0.80
2022-08-10T20:21:57.528Z,0.80
2022-08-10T20:24:29.663Z,0.50
2022-08-10T20:27:13.117Z,0.60
2022-08-10T20:30:04.331Z,0.65
2022-08-10T20:32:50.868Z,0.75
2022-08-10T20:35:25.969Z,0.70
2022-08-10T20:38:03.445Z,0.65
2022-08-10T20:40:51.283Z,0.75
2022-08-10T20:43:23.738Z,0.77
2022-08-10T20:46:08.828Z,0.65
2022-08-10T20:48:35.818Z,0.70
2022-08-10T20:51:04.501Z,0.70
2022-08-10T20:53:35.930Z,0.80
2022-08-10T20:56:12.820Z,0.90
2022-08-10T20:59:09.064Z,0.90
2022-08-10T21:02:10.988Z,0.85
2022-08-10T21:04:50.385Z,0.77
2022-08-10T21:07:32.948Z,0.88
2022-08-10T21:10:24.566Z,0.90
2022-08-10T21:12:50.987Z,0.80
2022-08-10T21:15:20.524Z,0.73
2022-08-10T21:18:02.134Z,0.90
2022-08-10T21:20:55.421Z,0.95
2022-08-10T21:23:30.735Z,0.82
2022-08-10T21:26:08.889Z,1.00
2022-08-10T21:28:49.908Z,1.00
2022-08-10T21:31:27.854Z,0.95
2022-08-10T21:34:07.102Z,1.00
2022-08-10T21:36:37.362Z,1.10
2022-08-10T21:39:42.488Z,0.82
2022-08-10T21:42:36.782Z,1.20
2022-08-10T21:45:58.392Z,1.17
2022-08-10T21:48:45.133Z,1.17
2022-08-10T21:52:01.417Z,1.20
2022-08-10T21:54:54.394Z,0.93
2022-08-10T21:57:44.106Z,0.90
2022-08-10T22:00:31.503Z,0.90
2022-08-10T22:03:17.796Z,1.13
2022-08-10T22:06:07.345Z,1.10
2022-08-10T22:09:14.643Z,1.10
2022-08-10T22:12:04.008Z,0.90
2022-08-10T22:14:51.933Z,1.23
2022-08-10T22:18:03.892Z,1.30
2022-08-10T22:20:44.976Z,1.00
2022-08-10T22:23:40.900Z,1.00
2022-08-10T22:26:38.313Z,1.07
2022-08-10T22:29:26.424Z,1.10
2022-08-10T22:32:27.962Z,1.10
2022-08-10T22:35:36.434Z,1.10
2022-08-10T22:38:26.009Z,1.02
2022-08-10T22:41:12.307Z,1.00
2022-08-10T22:43:57.672Z,1.00
2022-08-10T22:46:43.987Z,1.00
2022-08-10T22:49:10.626Z,1.10
2022-08-10T22:51:47.477Z,1.15
2022-08-10T22:54:40.054Z,1.02
2022-08-10T22:57:29.983Z,0.98
2022-08-10T22:59:56.464Z,0.85
2022-08-10T23:02:30.711Z,1.30
2022-08-10T23:05:11.722Z,1.00
2022-08-10T23:07:49.193Z,0.90
2022-08-10T23:10:17.815Z,1.05
2022-08-10T23:12:58.509Z,0.82
2022-08-10T23:15:48.417Z,1.20
2022-08-10T23:18:37.174Z,1.20
2022-08-10T23:21:04.555Z,0.93
2022-08-10T23:23:36.497Z,1.20
2022-08-10T23:26:03.671Z,0.98
2022-08-10T23:28:58.332Z,1.02
2022-08-10T23:32:01.337Z,1.05
2022-08-10T23:34:08.493Z,1.00
2022-08-10T23:36:37.380Z,1.05
2022-08-10T23:39:24.440Z,0.90
2022-08-10T23:42:07.173Z,1.00
2022-08-10T23:44:40.536Z,1.10
2022-08-10T23:47:08.040Z,1.10
2022-08-10T23:49:35.494Z,0.88
2022-08-10T23:52:08.715Z,0.85
2022-08-10T23:54:35.422Z,0.95
2022-08-10T23:57:02.309Z,1.20
2022-08-10T23:59:31.249Z,0.90
